sensor_id;sensor_type;location;lat;lon;timestamp;P1;durP1;ratioP1;P2;durP2;ratioP2
64018;SDS011;66942;52.138;5.216;2023-05-20T00:01:26;7.8;;;5.4;;
64018;SDS011;66942;52.138;5.216;2023-05-20T00:03:02;7.8;;;5.4;;
64018;SDS011;66942;52.138;5.216;2023-05-20T00:06:15;7.0;;;5.0;;
64018;SDS011;66942;52.138;5.216;2023-05-20T00:07:51;7.6;;;5.11;;
64018;SDS011;66942;52.138;5.216;2023-05-20T00:09:27;7.5;;;5.5;;
64018;SDS011;66942;52.138;5.216;2023-05-20T00:11:03;8.1;;;5.11;;
64018;SDS011;66942;52.138;5.216;2023-05-20T00:14:16;8.1;;;5.11;;
64018;SDS011;66942;52.138;5.216;2023-05-20T00:15:52;7.5;;;4.61;;
64018;SDS011;66942;52.138;5.216;2023-05-20T00:17:28;5.9;;;5.3;;
64018;SDS011;66942;52.138;5.216;2023-05-20T00:20:41;7.7;;;5.0;;
64018;SDS011;66942;52.138;5.216;2023-05-20T00:22:18;9.71;;;4.8;;
64018;SDS011;66942;52.138;5.216;2023-05-20T00:23:54;5.11;;;4.3;;
64018;SDS011;66942;52.138;5.216;2023-05-20T00:27:06;5.4;;;4.8;;
64018;SDS011;66942;52.138;5.216;2023-05-20T00:28:42;7.7;;;4.7;;
64018;SDS011;66942;52.138;5.216;2023-05-20T00:30:19;8.2;;;5.0;;
64018;SDS011;66942;52.138;5.216;2023-05-20T00:33:31;7.9;;;5.11;;
64018;SDS011;66942;52.138;5.216;2023-05-20T00:35:07;8.2;;;5.3;;
64018;SDS011;66942;52.138;5.216;2023-05-20T00:36:43;7.4;;;5.11;;
64018;SDS011;66942;52.138;5.216;2023-05-20T00:38:20;7.8;;;5.6;;
64018;SDS011;66942;52.138;5.216;2023-05-20T00:41:32;7.1;;;4.8;;
64018;SDS011;66942;52.138;5.216;2023-05-20T00:43:08;8.71;;;5.3;;
64018;SDS011;66942;52.138;5.216;2023-05-20T00:44:44;8.2;;;5.0;;
64018;SDS011;66942;52.138;5.216;2023-05-20T00:47:59;9.5;;;5.9;;
64018;SDS011;66942;52.138;5.216;2023-05-20T00:49:36;6.3;;;5.0;;
64018;SDS011;66942;52.138;5.216;2023-05-20T00:51:12;8.6;;;5.9;;
64018;SDS011;66942;52.138;5.216;2023-05-20T00:54:24;7.8;;;5.4;;
64018;SDS011;66942;52.138;5.216;2023-05-20T00:56:01;8.0;;;5.5;;
64018;SDS011;66942;52.138;5.216;2023-05-20T00:57:38;8.81;;;5.8;;
64018;SDS011;66942;52.138;5.216;2023-05-20T00:59:14;8.1;;;5.9;;
64018;SDS011;66942;52.138;5.216;2023-05-20T01:02:26;6.7;;;5.7;;
64018;SDS011;66942;52.138;5.216;2023-05-20T01:04:04;6.4;;;5.7;;
64018;SDS011;66942;52.138;5.216;2023-05-20T01:05:40;7.0;;;6.0;;
64018;SDS011;66942;52.138;5.216;2023-05-20T01:08:53;8.0;;;6.5;;
64018;SDS011;66942;52.138;5.216;2023-05-20T01:10:29;9.1;;;6.1;;
64018;SDS011;66942;52.138;5.216;2023-05-20T01:12:11;10.8;;;6.7;;
64018;SDS011;66942;52.138;5.216;2023-05-20T01:13:53;8.4;;;6.5;;
64018;SDS011;66942;52.138;5.216;2023-05-20T01:17:09;6.1;;;5.4;;
64018;SDS011;66942;52.138;5.216;2023-05-20T01:18:47;7.8;;;6.1;;
64018;SDS011;66942;52.138;5.216;2023-05-20T01:20:26;7.8;;;5.9;;
64018;SDS011;66942;52.138;5.216;2023-05-20T01:23:43;7.2;;;6.0;;
64018;SDS011;66942;52.138;5.216;2023-05-20T01:25:19;8.71;;;6.3;;
64018;SDS011;66942;52.138;5.216;2023-05-20T01:26:56;8.0;;;6.4;;
64018;SDS011;66942;52.138;5.216;2023-05-20T01:28:32;7.7;;;5.8;;
64018;SDS011;66942;52.138;5.216;2023-05-20T01:31:47;7.3;;;6.5;;
64018;SDS011;66942;52.138;5.216;2023-05-20T01:33:24;8.1;;;6.6;;
64018;SDS011;66942;52.138;5.216;2023-05-20T01:35:03;7.2;;;6.3;;
64018;SDS011;66942;52.138;5.216;2023-05-20T01:38:21;7.8;;;6.1;;
64018;SDS011;66942;52.138;5.216;2023-05-20T01:39:59;7.3;;;6.0;;
64018;SDS011;66942;52.138;5.216;2023-05-20T01:41:35;7.2;;;6.5;;
64018;SDS011;66942;52.138;5.216;2023-05-20T01:43:12;8.2;;;6.1;;
64018;SDS011;66942;52.138;5.216;2023-05-20T01:46:25;8.5;;;6.7;;
64018;SDS011;66942;52.138;5.216;2023-05-20T01:48:02;7.8;;;6.5;;
64018;SDS011;66942;52.138;5.216;2023-05-20T01:49:38;9.71;;;6.9;;
64018;SDS011;66942;52.138;5.216;2023-05-20T01:52:50;8.71;;;7.4;;
64018;SDS011;66942;52.138;5.216;2023-05-20T01:54:26;7.2;;;6.3;;
64018;SDS011;66942;52.138;5.216;2023-05-20T01:56:04;6.8;;;6.1;;
64018;SDS011;66942;52.138;5.216;2023-05-20T01:59:16;7.5;;;6.8;;
64018;SDS011;66942;52.138;5.216;2023-05-20T02:00:52;9.81;;;6.9;;
64018;SDS011;66942;52.138;5.216;2023-05-20T02:02:28;7.3;;;6.6;;
64018;SDS011;66942;52.138;5.216;2023-05-20T02:04:05;8.31;;;6.6;;
64018;SDS011;66942;52.138;5.216;2023-05-20T02:07:17;7.5;;;6.7;;
64018;SDS011;66942;52.138;5.216;2023-05-20T02:08:54;9.5;;;7.1;;
64018;SDS011;66942;52.138;5.216;2023-05-20T02:10:30;10.1;;;7.0;;
64018;SDS011;66942;52.138;5.216;2023-05-20T02:13:44;9.4;;;6.9;;
64018;SDS011;66942;52.138;5.216;2023-05-20T02:15:20;9.21;;;7.3;;
64018;SDS011;66942;52.138;5.216;2023-05-20T02:16:56;7.8;;;7.1;;
64018;SDS011;66942;52.138;5.216;2023-05-20T02:20:09;7.6;;;6.8;;
64018;SDS011;66942;52.138;5.216;2023-05-20T02:21:46;7.7;;;6.7;;
64018;SDS011;66942;52.138;5.216;2023-05-20T02:23:22;7.8;;;6.5;;
64018;SDS011;66942;52.138;5.216;2023-05-20T02:24:58;9.1;;;6.7;;
64018;SDS011;66942;52.138;5.216;2023-05-20T02:28:10;7.9;;;6.7;;
64018;SDS011;66942;52.138;5.216;2023-05-20T02:29:47;7.4;;;6.6;;
64018;SDS011;66942;52.138;5.216;2023-05-20T02:31:23;8.1;;;7.3;;
64018;SDS011;66942;52.138;5.216;2023-05-20T02:34:35;8.1;;;6.4;;
64018;SDS011;66942;52.138;5.216;2023-05-20T02:36:11;8.4;;;7.3;;
64018;SDS011;66942;52.138;5.216;2023-05-20T02:37:47;7.8;;;6.2;;
64018;SDS011;66942;52.138;5.216;2023-05-20T02:41:00;8.2;;;6.6;;
64018;SDS011;66942;52.138;5.216;2023-05-20T02:42:36;7.5;;;6.8;;
64018;SDS011;66942;52.138;5.216;2023-05-20T02:44:12;7.5;;;6.7;;
64018;SDS011;66942;52.138;5.216;2023-05-20T02:47:25;9.0;;;6.9;;
64018;SDS011;66942;52.138;5.216;2023-05-20T02:49:02;8.5;;;6.7;;
64018;SDS011;66942;52.138;5.216;2023-05-20T02:50:38;7.1;;;6.2;;
64018;SDS011;66942;52.138;5.216;2023-05-20T02:52:14;10.1;;;6.8;;
64018;SDS011;66942;52.138;5.216;2023-05-20T02:55:27;9.21;;;6.7;;
64018;SDS011;66942;52.138;5.216;2023-05-20T02:57:03;7.2;;;6.5;;
64018;SDS011;66942;52.138;5.216;2023-05-20T02:58:39;7.7;;;6.0;;
64018;SDS011;66942;52.138;5.216;2023-05-20T03:01:51;10.4;;;7.0;;
64018;SDS011;66942;52.138;5.216;2023-05-20T03:03:27;7.4;;;6.6;;
64018;SDS011;66942;52.138;5.216;2023-05-20T03:05:04;7.9;;;7.0;;
64018;SDS011;66942;52.138;5.216;2023-05-20T03:08:18;8.81;;;6.4;;
64018;SDS011;66942;52.138;5.216;2023-05-20T03:09:55;7.7;;;6.9;;
64018;SDS011;66942;52.138;5.216;2023-05-20T03:11:31;11.3;;;7.0;;
64018;SDS011;66942;52.138;5.216;2023-05-20T03:13:08;7.9;;;7.1;;
64018;SDS011;66942;52.138;5.216;2023-05-20T03:16:20;8.31;;;6.8;;
64018;SDS011;66942;52.138;5.216;2023-05-20T03:17:57;8.4;;;6.7;;
64018;SDS011;66942;52.138;5.216;2023-05-20T03:19:33;7.8;;;6.6;;
64018;SDS011;66942;52.138;5.216;2023-05-20T03:22:46;7.8;;;7.1;;
64018;SDS011;66942;52.138;5.216;2023-05-20T03:24:22;7.2;;;6.1;;
64018;SDS011;66942;52.138;5.216;2023-05-20T03:25:58;8.4;;;7.2;;
64018;SDS011;66942;52.138;5.216;2023-05-20T03:29:10;8.0;;;6.5;;
64018;SDS011;66942;52.138;5.216;2023-05-20T03:30:47;8.5;;;7.1;;
64018;SDS011;66942;52.138;5.216;2023-05-20T03:32:23;10.8;;;7.4;;
64018;SDS011;66942;52.138;5.216;2023-05-20T03:33:59;7.4;;;6.7;;
64018;SDS011;66942;52.138;5.216;2023-05-20T03:37:11;7.8;;;7.1;;
64018;SDS011;66942;52.138;5.216;2023-05-20T03:38:48;8.9;;;6.8;;
64018;SDS011;66942;52.138;5.216;2023-05-20T03:40:24;8.9;;;6.6;;
64018;SDS011;66942;52.138;5.216;2023-05-20T03:43:36;8.4;;;7.5;;
64018;SDS011;66942;52.138;5.216;2023-05-20T03:45:12;8.31;;;7.4;;
64018;SDS011;66942;52.138;5.216;2023-05-20T03:46:49;7.9;;;7.1;;
64018;SDS011;66942;52.138;5.216;2023-05-20T03:50:01;8.9;;;7.4;;
64018;SDS011;66942;52.138;5.216;2023-05-20T03:51:37;8.71;;;7.7;;
64018;SDS011;66942;52.138;5.216;2023-05-20T03:53:13;10.9;;;8.2;;
64018;SDS011;66942;52.138;5.216;2023-05-20T03:56:26;9.1;;;8.2;;
64018;SDS011;66942;52.138;5.216;2023-05-20T03:58:02;8.4;;;7.6;;
64018;SDS011;66942;52.138;5.216;2023-05-20T03:59:38;8.5;;;7.3;;
64018;SDS011;66942;52.138;5.216;2023-05-20T04:01:14;8.6;;;7.8;;
64018;SDS011;66942;52.138;5.216;2023-05-20T04:04:27;10.5;;;7.6;;
64018;SDS011;66942;52.138;5.216;2023-05-20T04:06:03;8.71;;;7.8;;
64018;SDS011;66942;52.138;5.216;2023-05-20T04:07:39;8.1;;;7.5;;
64018;SDS011;66942;52.138;5.216;2023-05-20T04:10:54;8.31;;;7.5;;
64018;SDS011;66942;52.138;5.216;2023-05-20T04:12:31;8.81;;;7.9;;
64018;SDS011;66942;52.138;5.216;2023-05-20T04:14:07;8.5;;;7.7;;
64018;SDS011;66942;52.138;5.216;2023-05-20T04:17:19;8.5;;;7.6;;
64018;SDS011;66942;52.138;5.216;2023-05-20T04:18:55;10.4;;;7.9;;
64018;SDS011;66942;52.138;5.216;2023-05-20T04:20:32;9.1;;;8.1;;
64018;SDS011;66942;52.138;5.216;2023-05-20T04:22:08;9.6;;;8.6;;
64018;SDS011;66942;52.138;5.216;2023-05-20T04:25:20;8.1;;;7.3;;
64018;SDS011;66942;52.138;5.216;2023-05-20T04:26:56;9.21;;;8.2;;
64018;SDS011;66942;52.138;5.216;2023-05-20T04:28:33;8.2;;;7.4;;
64018;SDS011;66942;52.138;5.216;2023-05-20T04:31:46;8.81;;;8.0;;
64018;SDS011;66942;52.138;5.216;2023-05-20T04:33:22;8.31;;;7.5;;
64018;SDS011;66942;52.138;5.216;2023-05-20T04:34:58;8.5;;;7.6;;
64018;SDS011;66942;52.138;5.216;2023-05-20T04:38:11;10.0;;;7.8;;
64018;SDS011;66942;52.138;5.216;2023-05-20T04:39:47;9.81;;;7.7;;
64018;SDS011;66942;52.138;5.216;2023-05-20T04:41:23;7.6;;;7.0;;
64018;SDS011;66942;52.138;5.216;2023-05-20T04:44:35;8.9;;;7.6;;
64018;SDS011;66942;52.138;5.216;2023-05-20T04:46:11;9.4;;;7.1;;
64018;SDS011;66942;52.138;5.216;2023-05-20T04:47:48;8.71;;;7.9;;
64018;SDS011;66942;52.138;5.216;2023-05-20T04:49:24;8.2;;;7.4;;
64018;SDS011;66942;52.138;5.216;2023-05-20T04:52:37;8.5;;;7.4;;
64018;SDS011;66942;52.138;5.216;2023-05-20T04:54:14;8.9;;;7.4;;
64018;SDS011;66942;52.138;5.216;2023-05-20T04:55:53;10.3;;;7.6;;
64018;SDS011;66942;52.138;5.216;2023-05-20T04:59:05;8.2;;;7.4;;
64018;SDS011;66942;52.138;5.216;2023-05-20T05:00:41;7.8;;;7.1;;
64018;SDS011;66942;52.138;5.216;2023-05-20T05:02:18;10.9;;;7.5;;
64018;SDS011;66942;52.138;5.216;2023-05-20T05:05:31;7.9;;;7.1;;
64018;SDS011;66942;52.138;5.216;2023-05-20T05:07:07;8.2;;;7.4;;
64018;SDS011;66942;52.138;5.216;2023-05-20T05:08:43;7.8;;;7.1;;
64018;SDS011;66942;52.138;5.216;2023-05-20T05:10:19;8.0;;;7.3;;
64018;SDS011;66942;52.138;5.216;2023-05-20T05:13:32;8.1;;;7.3;;
64018;SDS011;66942;52.138;5.216;2023-05-20T05:15:08;7.4;;;6.7;;
64018;SDS011;66942;52.138;5.216;2023-05-20T05:16:45;7.4;;;6.5;;
64018;SDS011;66942;52.138;5.216;2023-05-20T05:19:57;8.5;;;6.9;;
64018;SDS011;66942;52.138;5.216;2023-05-20T05:21:34;7.1;;;6.4;;
64018;SDS011;66942;52.138;5.216;2023-05-20T05:23:10;8.0;;;7.2;;
64018;SDS011;66942;52.138;5.216;2023-05-20T05:26:22;6.8;;;6.3;;
64018;SDS011;66942;52.138;5.216;2023-05-20T05:27:59;6.8;;;6.0;;
64018;SDS011;66942;52.138;5.216;2023-05-20T05:29:35;7.1;;;6.4;;
64018;SDS011;66942;52.138;5.216;2023-05-20T05:31:11;6.6;;;6.0;;
64018;SDS011;66942;52.138;5.216;2023-05-20T05:34:23;6.2;;;5.6;;
64018;SDS011;66942;52.138;5.216;2023-05-20T05:35:59;6.9;;;6.2;;
64018;SDS011;66942;52.138;5.216;2023-05-20T05:37:36;6.4;;;5.8;;
64018;SDS011;66942;52.138;5.216;2023-05-20T05:40:48;7.5;;;6.7;;
64018;SDS011;66942;52.138;5.216;2023-05-20T05:42:24;6.7;;;6.0;;
64018;SDS011;66942;52.138;5.216;2023-05-20T05:44:00;7.2;;;6.0;;
64018;SDS011;66942;52.138;5.216;2023-05-20T05:47:14;13.6;;;5.8;;
64018;SDS011;66942;52.138;5.216;2023-05-20T05:48:50;8.0;;;5.5;;
64018;SDS011;66942;52.138;5.216;2023-05-20T05:50:26;6.9;;;5.6;;
64018;SDS011;66942;52.138;5.216;2023-05-20T05:53:38;8.9;;;6.5;;
64018;SDS011;66942;52.138;5.216;2023-05-20T05:55:15;7.2;;;6.0;;
64018;SDS011;66942;52.138;5.216;2023-05-20T05:56:51;5.7;;;5.2;;
64018;SDS011;66942;52.138;5.216;2023-05-20T05:58:28;6.2;;;5.5;;
64018;SDS011;66942;52.138;5.216;2023-05-20T06:01:43;5.6;;;5.11;;
64018;SDS011;66942;52.138;5.216;2023-05-20T06:03:19;6.4;;;5.2;;
64018;SDS011;66942;52.138;5.216;2023-05-20T06:04:55;5.9;;;5.3;;
64018;SDS011;66942;52.138;5.216;2023-05-20T06:08:08;6.8;;;5.11;;
64018;SDS011;66942;52.138;5.216;2023-05-20T06:09:44;5.9;;;5.4;;
64018;SDS011;66942;52.138;5.216;2023-05-20T06:11:21;7.6;;;5.7;;
64018;SDS011;66942;52.138;5.216;2023-05-20T06:14:33;6.0;;;5.4;;
64018;SDS011;66942;52.138;5.216;2023-05-20T06:16:09;6.5;;;5.11;;
64018;SDS011;66942;52.138;5.216;2023-05-20T06:17:45;7.7;;;5.4;;
64018;SDS011;66942;52.138;5.216;2023-05-20T06:19:22;5.6;;;4.91;;
64018;SDS011;66942;52.138;5.216;2023-05-20T06:22:35;6.0;;;5.11;;
64018;SDS011;66942;52.138;5.216;2023-05-20T06:24:11;7.0;;;5.0;;
64018;SDS011;66942;52.138;5.216;2023-05-20T06:25:48;5.7;;;5.2;;
64018;SDS011;66942;52.138;5.216;2023-05-20T06:29:01;5.6;;;5.11;;
64018;SDS011;66942;52.138;5.216;2023-05-20T06:30:37;5.4;;;4.91;;
64018;SDS011;66942;52.138;5.216;2023-05-20T06:32:13;6.3;;;5.5;;
64018;SDS011;66942;52.138;5.216;2023-05-20T06:35:25;6.2;;;5.3;;
64018;SDS011;66942;52.138;5.216;2023-05-20T06:37:02;5.6;;;5.0;;
64018;SDS011;66942;52.138;5.216;2023-05-20T06:38:38;5.3;;;4.91;;
64018;SDS011;66942;52.138;5.216;2023-05-20T06:40:14;5.8;;;5.3;;
64018;SDS011;66942;52.138;5.216;2023-05-20T06:43:26;5.2;;;4.7;;
64018;SDS011;66942;52.138;5.216;2023-05-20T06:45:04;8.81;;;5.0;;
64018;SDS011;66942;52.138;5.216;2023-05-20T06:46:41;5.6;;;5.11;;
64018;SDS011;66942;52.138;5.216;2023-05-20T06:49:53;7.1;;;5.11;;
64018;SDS011;66942;52.138;5.216;2023-05-20T06:51:29;7.0;;;5.3;;
64018;SDS011;66942;52.138;5.216;2023-05-20T06:53:05;6.3;;;5.4;;
64018;SDS011;66942;52.138;5.216;2023-05-20T06:56:17;6.2;;;5.2;;
64018;SDS011;66942;52.138;5.216;2023-05-20T06:57:54;5.9;;;5.2;;
64018;SDS011;66942;52.138;5.216;2023-05-20T06:59:30;5.5;;;5.0;;
64018;SDS011;66942;52.138;5.216;2023-05-20T07:01:06;5.7;;;4.61;;
64018;SDS011;66942;52.138;5.216;2023-05-20T07:04:19;6.4;;;5.11;;
64018;SDS011;66942;52.138;5.216;2023-05-20T07:05:55;6.1;;;5.2;;
64018;SDS011;66942;52.138;5.216;2023-05-20T07:07:31;5.5;;;5.0;;
64018;SDS011;66942;52.138;5.216;2023-05-20T07:10:43;5.8;;;5.2;;
64018;SDS011;66942;52.138;5.216;2023-05-20T07:12:20;5.6;;;4.61;;
64018;SDS011;66942;52.138;5.216;2023-05-20T07:13:56;4.8;;;4.3;;
64018;SDS011;66942;52.138;5.216;2023-05-20T07:17:09;6.0;;;4.61;;
64018;SDS011;66942;52.138;5.216;2023-05-20T07:18:46;5.6;;;4.91;;
64018;SDS011;66942;52.138;5.216;2023-05-20T07:20:22;5.2;;;4.61;;
64018;SDS011;66942;52.138;5.216;2023-05-20T07:23:34;9.31;;;5.11;;
64018;SDS011;66942;52.138;5.216;2023-05-20T07:25:11;5.5;;;4.7;;
64018;SDS011;66942;52.138;5.216;2023-05-20T07:26:47;5.6;;;4.91;;
64018;SDS011;66942;52.138;5.216;2023-05-20T07:28:23;5.3;;;4.8;;
64018;SDS011;66942;52.138;5.216;2023-05-20T07:31:35;5.5;;;4.5;;
64018;SDS011;66942;52.138;5.216;2023-05-20T07:33:11;5.4;;;4.8;;
64018;SDS011;66942;52.138;5.216;2023-05-20T07:34:48;4.41;;;4.1;;
64018;SDS011;66942;52.138;5.216;2023-05-20T07:38:01;6.5;;;4.3;;
64018;SDS011;66942;52.138;5.216;2023-05-20T07:39:37;5.3;;;4.41;;
64018;SDS011;66942;52.138;5.216;2023-05-20T07:41:13;5.2;;;4.2;;
64018;SDS011;66942;52.138;5.216;2023-05-20T07:44:26;4.61;;;3.7;;
64018;SDS011;66942;52.138;5.216;2023-05-20T07:46:02;4.41;;;4.0;;
64018;SDS011;66942;52.138;5.216;2023-05-20T07:47:39;4.5;;;4.1;;
64018;SDS011;66942;52.138;5.216;2023-05-20T07:49:15;5.9;;;3.8;;
64018;SDS011;66942;52.138;5.216;2023-05-20T07:52:28;3.9;;;3.5;;
64018;SDS011;66942;52.138;5.216;2023-05-20T07:54:04;4.3;;;3.9;;
64018;SDS011;66942;52.138;5.216;2023-05-20T07:55:41;4.3;;;3.9;;
64018;SDS011;66942;52.138;5.216;2023-05-20T07:58:54;3.4;;;3.1;;
64018;SDS011;66942;52.138;5.216;2023-05-20T08:00:31;3.9;;;3.6;;
64018;SDS011;66942;52.138;5.216;2023-05-20T08:02:08;4.61;;;3.4;;
64018;SDS011;66942;52.138;5.216;2023-05-20T08:05:20;3.5;;;3.2;;
64018;SDS011;66942;52.138;5.216;2023-05-20T08:06:56;5.6;;;3.2;;
64018;SDS011;66942;52.138;5.216;2023-05-20T08:08:32;3.5;;;3.2;;
64018;SDS011;66942;52.138;5.216;2023-05-20T08:10:09;7.7;;;3.0;;
64018;SDS011;66942;52.138;5.216;2023-05-20T08:13:22;5.2;;;3.0;;
64018;SDS011;66942;52.138;5.216;2023-05-20T08:15:00;3.2;;;2.9;;
64018;SDS011;66942;52.138;5.216;2023-05-20T08:16:36;3.6;;;2.6;;
64018;SDS011;66942;52.138;5.216;2023-05-20T08:19:49;3.8;;;2.8;;
64018;SDS011;66942;52.138;5.216;2023-05-20T08:21:25;3.8;;;3.0;;
64018;SDS011;66942;52.138;5.216;2023-05-20T08:23:01;6.7;;;3.1;;
64018;SDS011;66942;52.138;5.216;2023-05-20T08:26:13;4.5;;;2.9;;
64018;SDS011;66942;52.138;5.216;2023-05-20T08:27:49;5.9;;;3.3;;
64018;SDS011;66942;52.138;5.216;2023-05-20T08:29:26;4.61;;;3.3;;
64018;SDS011;66942;52.138;5.216;2023-05-20T08:32:38;3.8;;;3.1;;
64018;SDS011;66942;52.138;5.216;2023-05-20T08:34:14;4.8;;;3.0;;
64018;SDS011;66942;52.138;5.216;2023-05-20T08:35:50;4.3;;;3.1;;
64018;SDS011;66942;52.138;5.216;2023-05-20T08:37:26;5.2;;;3.0;;
64018;SDS011;66942;52.138;5.216;2023-05-20T08:40:39;4.61;;;3.0;;
64018;SDS011;66942;52.138;5.216;2023-05-20T08:42:18;5.5;;;3.0;;
64018;SDS011;66942;52.138;5.216;2023-05-20T08:43:56;4.7;;;3.3;;
64018;SDS011;66942;52.138;5.216;2023-05-20T08:47:13;4.7;;;3.0;;
64018;SDS011;66942;52.138;5.216;2023-05-20T08:48:49;5.8;;;3.1;;
64018;SDS011;66942;52.138;5.216;2023-05-20T08:50:25;4.3;;;2.6;;
64018;SDS011;66942;52.138;5.216;2023-05-20T08:52:02;3.4;;;2.7;;
64018;SDS011;66942;52.138;5.216;2023-05-20T08:55:16;3.7;;;2.6;;
64018;SDS011;66942;52.138;5.216;2023-05-20T08:57:01;7.5;;;2.31;;
64018;SDS011;66942;52.138;5.216;2023-05-20T08:58:37;3.1;;;2.4;;
64018;SDS011;66942;52.138;5.216;2023-05-20T09:01:50;7.0;;;2.31;;
64018;SDS011;66942;52.138;5.216;2023-05-20T09:03:26;3.0;;;2.21;;
64018;SDS011;66942;52.138;5.216;2023-05-20T09:05:03;3.0;;;2.0;;
64018;SDS011;66942;52.138;5.216;2023-05-20T09:06:41;3.1;;;2.21;;
64018;SDS011;66942;52.138;5.216;2023-05-20T09:09:59;3.1;;;2.4;;
64018;SDS011;66942;52.138;5.216;2023-05-20T09:11:35;3.1;;;2.1;;
64018;SDS011;66942;52.138;5.216;2023-05-20T09:13:11;2.7;;;2.1;;
64018;SDS011;66942;52.138;5.216;2023-05-20T09:16:24;2.31;;;2.1;;
64018;SDS011;66942;52.138;5.216;2023-05-20T09:18:00;4.0;;;2.1;;
64018;SDS011;66942;52.138;5.216;2023-05-20T09:19:37;5.4;;;1.9;;
64018;SDS011;66942;52.138;5.216;2023-05-20T09:22:50;2.9;;;1.8;;
64018;SDS011;66942;52.138;5.216;2023-05-20T09:24:27;4.0;;;2.0;;
64018;SDS011;66942;52.138;5.216;2023-05-20T09:26:03;2.1;;;1.9;;
64018;SDS011;66942;52.138;5.216;2023-05-20T09:27:39;3.6;;;1.8;;
64018;SDS011;66942;52.138;5.216;2023-05-20T09:30:55;2.1;;;1.9;;
64018;SDS011;66942;52.138;5.216;2023-05-20T09:32:33;1.9;;;1.7;;
64018;SDS011;66942;52.138;5.216;2023-05-20T09:34:09;2.7;;;2.21;;
64018;SDS011;66942;52.138;5.216;2023-05-20T09:37:23;2.31;;;2.1;;
64018;SDS011;66942;52.138;5.216;2023-05-20T09:39:02;2.5;;;2.0;;
64018;SDS011;66942;52.138;5.216;2023-05-20T09:40:39;3.0;;;2.21;;
64018;SDS011;66942;52.138;5.216;2023-05-20T09:42:20;3.5;;;1.9;;
64018;SDS011;66942;52.138;5.216;2023-05-20T09:45:34;2.5;;;2.1;;
64018;SDS011;66942;52.138;5.216;2023-05-20T09:47:13;2.6;;;1.9;;
64018;SDS011;66942;52.138;5.216;2023-05-20T09:48:51;2.31;;;2.1;;
64018;SDS011;66942;52.138;5.216;2023-05-20T09:52:05;2.9;;;1.9;;
64018;SDS011;66942;52.138;5.216;2023-05-20T09:53:42;2.9;;;1.9;;
64018;SDS011;66942;52.138;5.216;2023-05-20T09:55:19;2.9;;;1.8;;
64018;SDS011;66942;52.138;5.216;2023-05-20T09:56:59;2.7;;;1.7;;
64018;SDS011;66942;52.138;5.216;2023-05-20T10:00:16;5.2;;;2.4;;
64018;SDS011;66942;52.138;5.216;2023-05-20T10:01:52;4.91;;;2.1;;
64018;SDS011;66942;52.138;5.216;2023-05-20T10:03:28;4.1;;;2.31;;
64018;SDS011;66942;52.138;5.216;2023-05-20T10:06:54;4.61;;;2.4;;
64018;SDS011;66942;52.138;5.216;2023-05-20T10:08:59;6.7;;;2.31;;
64018;SDS011;66942;52.138;5.216;2023-05-20T10:10:49;6.7;;;2.31;;
64018;SDS011;66942;52.138;5.216;2023-05-20T10:12:32;5.11;;;2.21;;
64018;SDS011;66942;52.138;5.216;2023-05-20T10:14:32;3.3;;;2.0;;
64018;SDS011;66942;52.138;5.216;2023-05-20T10:16:16;4.1;;;2.0;;
64018;SDS011;66942;52.138;5.216;2023-05-20T10:18:05;4.3;;;2.5;;
64018;SDS011;66942;52.138;5.216;2023-05-20T10:19:56;2.5;;;1.7;;
64018;SDS011;66942;52.138;5.216;2023-05-20T10:23:18;6.5;;;1.9;;
64018;SDS011;66942;52.138;5.216;2023-05-20T10:24:57;3.2;;;1.7;;
64018;SDS011;66942;52.138;5.216;2023-05-20T10:26:35;5.0;;;1.5;;
64018;SDS011;66942;52.138;5.216;2023-05-20T10:29:49;2.4;;;1.5;;
64018;SDS011;66942;52.138;5.216;2023-05-20T10:31:27;2.7;;;1.6;;
64018;SDS011;66942;52.138;5.216;2023-05-20T10:33:04;3.8;;;1.9;;
64018;SDS011;66942;52.138;5.216;2023-05-20T10:34:44;2.6;;;1.7;;
64018;SDS011;66942;52.138;5.216;2023-05-20T10:38:06;5.6;;;1.8;;
64018;SDS011;66942;52.138;5.216;2023-05-20T10:39:44;5.2;;;1.8;;
64018;SDS011;66942;52.138;5.216;2023-05-20T10:41:22;4.1;;;1.9;;
64018;SDS011;66942;52.138;5.216;2023-05-20T10:43:07;3.3;;;1.8;;
64018;SDS011;66942;52.138;5.216;2023-05-20T10:46:22;3.4;;;1.7;;
64018;SDS011;66942;52.138;5.216;2023-05-20T10:47:58;2.31;;;1.6;;
64018;SDS011;66942;52.138;5.216;2023-05-20T10:49:34;2.6;;;1.6;;
64018;SDS011;66942;52.138;5.216;2023-05-20T10:51:13;3.1;;;1.6;;
64018;SDS011;66942;52.138;5.216;2023-05-20T10:54:26;3.3;;;1.7;;
64018;SDS011;66942;52.138;5.216;2023-05-20T10:56:02;2.21;;;1.7;;
64018;SDS011;66942;52.138;5.216;2023-05-20T10:57:38;2.7;;;1.6;;
64018;SDS011;66942;52.138;5.216;2023-05-20T11:00:52;7.8;;;1.7;;
64018;SDS011;66942;52.138;5.216;2023-05-20T11:02:30;1.7;;;1.6;;
64018;SDS011;66942;52.138;5.216;2023-05-20T11:04:07;4.91;;;1.6;;
64018;SDS011;66942;52.138;5.216;2023-05-20T11:07:24;2.1;;;1.8;;
64018;SDS011;66942;52.138;5.216;2023-05-20T11:09:02;3.7;;;1.7;;
64018;SDS011;66942;52.138;5.216;2023-05-20T11:10:40;3.4;;;1.9;;
64018;SDS011;66942;52.138;5.216;2023-05-20T11:12:17;2.8;;;1.4;;
64018;SDS011;66942;52.138;5.216;2023-05-20T11:15:33;3.9;;;1.6;;
64018;SDS011;66942;52.138;5.216;2023-05-20T11:17:09;5.2;;;2.1;;
64018;SDS011;66942;52.138;5.216;2023-05-20T11:18:47;2.7;;;1.9;;
64018;SDS011;66942;52.138;5.216;2023-05-20T11:22:01;2.7;;;1.7;;
64018;SDS011;66942;52.138;5.216;2023-05-20T11:23:37;3.3;;;1.8;;
64018;SDS011;66942;52.138;5.216;2023-05-20T11:25:13;3.9;;;1.7;;
64018;SDS011;66942;52.138;5.216;2023-05-20T11:26:50;1.9;;;1.6;;
64018;SDS011;66942;52.138;5.216;2023-05-20T11:30:05;2.7;;;1.5;;
64018;SDS011;66942;52.138;5.216;2023-05-20T11:31:43;3.1;;;1.5;;
64018;SDS011;66942;52.138;5.216;2023-05-20T11:33:20;4.0;;;1.5;;
64018;SDS011;66942;52.138;5.216;2023-05-20T11:36:39;1.9;;;1.7;;
64018;SDS011;66942;52.138;5.216;2023-05-20T11:38:16;3.1;;;1.9;;
64018;SDS011;66942;52.138;5.216;2023-05-20T11:40:01;3.9;;;1.7;;
64018;SDS011;66942;52.138;5.216;2023-05-20T11:41:38;3.3;;;1.8;;
64018;SDS011;66942;52.138;5.216;2023-05-20T11:44:53;2.9;;;1.9;;
64018;SDS011;66942;52.138;5.216;2023-05-20T11:46:30;2.4;;;1.7;;
64018;SDS011;66942;52.138;5.216;2023-05-20T11:48:06;2.9;;;1.8;;
64018;SDS011;66942;52.138;5.216;2023-05-20T11:51:24;3.9;;;2.0;;
64018;SDS011;66942;52.138;5.216;2023-05-20T11:53:02;2.6;;;1.5;;
64018;SDS011;66942;52.138;5.216;2023-05-20T11:54:39;1.6;;;1.5;;
64018;SDS011;66942;52.138;5.216;2023-05-20T11:56:15;3.4;;;2.0;;
64018;SDS011;66942;52.138;5.216;2023-05-20T11:59:29;3.4;;;1.7;;
64018;SDS011;66942;52.138;5.216;2023-05-20T12:01:06;2.4;;;1.4;;
64018;SDS011;66942;52.138;5.216;2023-05-20T12:02:42;3.7;;;1.6;;
64018;SDS011;66942;52.138;5.216;2023-05-20T12:05:54;3.5;;;1.7;;
64018;SDS011;66942;52.138;5.216;2023-05-20T12:07:30;4.41;;;1.5;;
64018;SDS011;66942;52.138;5.216;2023-05-20T12:09:07;2.5;;;1.8;;
64018;SDS011;66942;52.138;5.216;2023-05-20T12:10:45;2.6;;;1.8;;
64018;SDS011;66942;52.138;5.216;2023-05-20T12:13:57;3.8;;;1.6;;
64018;SDS011;66942;52.138;5.216;2023-05-20T12:15:33;4.2;;;1.5;;
64018;SDS011;66942;52.138;5.216;2023-05-20T12:17:09;3.9;;;1.4;;
64018;SDS011;66942;52.138;5.216;2023-05-20T12:20:22;2.6;;;1.6;;
64018;SDS011;66942;52.138;5.216;2023-05-20T12:21:59;2.9;;;1.9;;
64018;SDS011;66942;52.138;5.216;2023-05-20T12:23:36;3.2;;;1.6;;
64018;SDS011;66942;52.138;5.216;2023-05-20T12:26:51;3.0;;;1.6;;
64018;SDS011;66942;52.138;5.216;2023-05-20T12:28:27;1.7;;;1.6;;
64018;SDS011;66942;52.138;5.216;2023-05-20T12:30:04;2.8;;;1.6;;
64018;SDS011;66942;52.138;5.216;2023-05-20T12:31:41;3.7;;;1.6;;
64018;SDS011;66942;52.138;5.216;2023-05-20T12:34:54;3.7;;;1.8;;
64018;SDS011;66942;52.138;5.216;2023-05-20T12:36:30;5.11;;;2.6;;
64018;SDS011;66942;52.138;5.216;2023-05-20T12:38:08;3.2;;;1.6;;
64018;SDS011;66942;52.138;5.216;2023-05-20T12:41:21;1.6;;;1.5;;
64018;SDS011;66942;52.138;5.216;2023-05-20T12:42:58;2.8;;;1.7;;
64018;SDS011;66942;52.138;5.216;2023-05-20T12:44:35;2.1;;;1.9;;
64018;SDS011;66942;52.138;5.216;2023-05-20T12:47:49;3.6;;;2.0;;
64018;SDS011;66942;52.138;5.216;2023-05-20T12:49:25;2.0;;;1.8;;
64018;SDS011;66942;52.138;5.216;2023-05-20T12:51:01;1.6;;;1.5;;
64018;SDS011;66942;52.138;5.216;2023-05-20T12:52:37;2.8;;;1.9;;
64018;SDS011;66942;52.138;5.216;2023-05-20T12:55:52;2.4;;;1.7;;
64018;SDS011;66942;52.138;5.216;2023-05-20T12:57:28;3.4;;;1.9;;